Time;durP1;ratioP1;P1;durP2;ratioP2;P2;SDS_P1;SDS_P2;PMS_P1;PMS_P2;Temp;Humidity;BMP_temperature;BMP_pressure;BME280_temperature;BME280_humidity;BME280_pressure;Samples;Min_cycle;Max_cycle;Signal;HPM_P1;HPM_P2
2023/05/15 00:00:05;;;;;;;12.68;10.32;;;;;;;13.94;68.74;97839.22;5053578;28;20392;-75
2023/05/15 00:02:32;;;;;;;12.88;10.40;;;;;;;13.95;68.71;97832.56;5054176;28;20100;-75
2023/05/15 00:04:57;;;;;;;14.65;10.23;;;;;;;13.96;68.76;97825.91;5053881;28;20025;-74
2023/05/15 00:07:23;;;;;;;13.52;10.55;;;;;;;13.96;68.85;97812.94;5053475;28;20575;-74
2023/05/15 00:09:48;;;;;;;12.25;10.10;;;;;;;13.96;68.65;97812.94;5053549;28;20017;-74
2023/05/15 00:12:14;;;;;;;14.80;11.10;;;;;;;13.96;68.78;97812.13;5053224;28;20519;-74
2023/05/15 00:14:39;;;;;;;15.63;9.80;;;;;;;13.95;68.66;97810.50;5053227;28;20013;-75
2023/05/15 00:17:05;;;;;;;12.13;9.43;;;;;;;13.93;68.69;97808.09;5053421;28;20325;-74
2023/05/15 00:19:30;;;;;;;13.65;8.82;;;;;;;13.92;68.69;97798.22;5053316;28;20029;-74
2023/05/15 00:21:56;;;;;;;11.25;8.63;;;;;;;13.90;68.25;97794.16;5052827;28;20055;-74
2023/05/15 00:24:21;;;;;;;8.98;8.00;;;;;;;13.86;68.54;97785.75;5053651;28;20123;-75
2023/05/15 00:26:46;;;;;;;11.10;8.40;;;;;;;13.83;68.70;97783.69;5051355;28;20036;-74
2023/05/15 00:29:12;;;;;;;11.60;8.60;;;;;;;13.81;68.73;97785.97;5051101;28;20116;-74
2023/05/15 00:31:37;;;;;;;10.10;8.18;;;;;;;13.77;68.51;97773.97;5052895;28;20500;-74
2023/05/15 00:34:02;;;;;;;10.95;8.30;;;;;;;13.74;68.70;97769.13;5053353;28;20012;-75
2023/05/15 00:36:28;;;;;;;10.70;8.13;;;;;;;13.72;68.64;97771.41;5053228;28;20036;-75
2023/05/15 00:38:53;;;;;;;10.90;7.82;;;;;;;13.68;68.65;97763.81;5053098;28;20068;-74
2023/05/15 00:41:20;;;;;;;9.35;7.20;;;;;;;13.65;68.72;97774.72;5053110;28;20542;-75
2023/05/15 00:43:49;;;;;;;9.13;6.68;;;;;;;13.62;68.63;97770.69;5053474;28;20028;-75
2023/05/15 00:46:15;;;;;;;8.77;6.20;;;;;;;13.59;68.78;97760.34;5053011;28;20112;-74
2023/05/15 00:48:42;;;;;;;7.40;5.82;;;;;;;13.56;68.70;97758.25;5053001;28;20037;-74
2023/05/15 00:51:08;;;;;;;8.20;5.97;;;;;;;13.53;68.82;97756.94;5052636;28;20033;-75
2023/05/15 00:53:34;;;;;;;6.70;5.70;;;;;;;13.52;68.67;97746.28;5053325;28;20113;-75
2023/05/15 00:56:01;;;;;;;7.85;5.55;;;;;;;13.52;68.82;97744.31;5052712;28;20119;-76
2023/05/15 00:58:28;;;;;;;7.50;5.90;;;;;;;13.49;68.88;97735.91;5052867;28;20064;-74
2023/05/15 01:00:54;;;;;;;6.45;5.72;;;;;;;13.47;68.85;97736.25;5052693;28;20044;-75
2023/05/15 01:03:20;;;;;;;7.05;6.03;;;;;;;13.44;69.04;97725.91;5052857;28;20377;-74
2023/05/15 01:05:45;;;;;;;5.82;5.07;;;;;;;13.38;69.01;97722.50;5052707;28;20021;-75
2023/05/15 01:08:32;;;;;;;7.53;5.43;;;;;;;13.33;68.71;97728.19;5052745;28;20060;-75
2023/05/15 01:10:58;;;;;;;8.20;6.22;;;;;;;13.33;69.05;97728.19;5053025;28;20067;-75
2023/05/15 01:13:24;;;;;;;8.43;5.97;;;;;;;13.30;69.14;97728.84;5052546;28;20492;-75
2023/05/15 01:15:49;;;;;;;9.85;6.30;;;;;;;13.29;69.07;97727.22;5052332;28;20021;-74
2023/05/15 01:18:15;;;;;;;8.68;6.00;;;;;;;13.28;69.20;97728.38;5052493;28;20025;-75
2023/05/15 01:21:01;;;;;;;7.93;5.97;;;;;;;13.27;69.21;97726.75;5052458;28;20472;-75
2023/05/15 01:23:45;;;;;;;7.55;6.05;;;;;;;13.28;68.65;97719.31;5052701;28;20028;-75
2023/05/15 01:26:26;;;;;;;10.38;6.15;;;;;;;13.25;69.13;97724.34;5051937;28;20043;-75
2023/05/15 01:29:00;;;;;;;7.82;5.85;;;;;;;13.22;69.15;97724.22;5052754;28;20678;-75
2023/05/15 01:31:29;;;;;;;12.82;6.93;;;;;;;13.19;69.18;97727.63;5052291;28;20481;-75
2023/05/15 01:34:01;;;;;;;8.85;6.45;;;;;;;13.15;69.08;97721.97;5052321;28;20048;-74
2023/05/15 01:36:36;;;;;;;9.73;6.65;;;;;;;13.11;69.41;97721.00;5052116;28;20031;-75
2023/05/15 01:39:04;;;;;;;9.40;6.57;;;;;;;13.09;69.42;97724.09;5052062;28;20048;-75
2023/05/15 01:41:44;;;;;;;9.88;6.63;;;;;;;13.08;69.96;97716.16;5051777;28;20037;-74
2023/05/15 01:44:23;;;;;;;9.05;6.88;;;;;;;13.07;69.71;97706.28;5052261;28;20029;-74
2023/05/15 01:46:54;;;;;;;10.40;6.32;;;;;;;13.08;69.64;97719.75;5052200;28;20430;-75
2023/05/15 01:49:25;;;;;;;8.93;5.90;;;;;;;13.07;69.88;97717.31;5052127;28;20021;-75
2023/05/15 01:51:56;;;;;;;8.07;5.80;;;;;;;13.07;69.83;97725.56;5052142;28;20049;-74
2023/05/15 01:54:22;;;;;;;11.50;7.97;;;;;;;13.07;69.69;97722.81;5052183;28;20473;-75
2023/05/15 01:56:47;;;;;;;17.88;9.50;;;;;;;13.08;69.97;97725.25;5052169;28;20063;-75
2023/05/15 01:59:14;;;;;;;14.27;9.07;;;;;;;13.09;70.24;97713.09;5052155;28;20024;-74
2023/05/15 02:01:40;;;;;;;12.70;8.68;;;;;;;13.13;70.04;97720.69;5052280;28;20017;-75
2023/05/15 02:04:07;;;;;;;12.23;8.55;;;;;;;13.08;70.14;97717.00;5052068;28;20029;-75
2023/05/15 02:06:33;;;;;;;11.75;8.05;;;;;;;13.05;69.97;97720.41;5052004;28;20564;-74
2023/05/15 02:09:01;;;;;;;11.65;8.18;;;;;;;13.03;69.82;97722.69;5051860;28;20108;-74
2023/05/15 02:11:26;;;;;;;13.38;8.07;;;;;;;13.02;70.19;97729.31;5052192;28;20422;-74
2023/05/15 02:13:55;;;;;;;10.27;7.47;;;;;;;13.01;70.33;97721.41;5052008;28;20108;-74
2023/05/15 02:16:21;;;;;;;9.77;7.13;;;;;;;13.01;70.36;97718.66;5052093;28;20027;-74
2023/05/15 02:18:46;;;;;;;10.13;7.15;;;;;;;13.02;70.00;97715.56;5051979;28;20086;-75
2023/05/15 02:21:12;;;;;;;11.02;7.28;;;;;;;13.05;70.29;97708.56;5051881;28;20032;-75
2023/05/15 02:23:39;;;;;;;10.68;7.68;;;;;;;13.07;70.43;97695.28;5052140;28;20160;-74
2023/05/15 02:26:46;;;;;;;8.68;6.68;;;;;;;13.08;70.40;97694.97;5051880;28;20625;-75
2023/05/15 02:29:42;;;;;;;8.57;6.32;;;;;;;13.09;70.31;97693.81;5051837;28;20029;-75
2023/05/15 02:32:18;;;;;;;8.70;6.70;;;;;;;13.14;70.45;97698.31;5051784;28;20029;-74
2023/05/15 02:35:01;;;;;;;8.63;6.32;;;;;;;13.19;70.53;97694.59;5051677;28;20064;-75
2023/05/15 02:37:31;;;;;;;7.25;5.75;;;;;;;13.23;70.75;97690.03;5051884;28;20107;-74
2023/05/15 02:39:58;;;;;;;7.68;5.88;;;;;;;13.23;70.47;97695.53;5055130;28;20055;-74
2023/05/15 02:42:26;;;;;;;8.27;6.20;;;;;;;13.23;70.64;97690.03;5055398;28;20537;-75
2023/05/15 02:44:53;;;;;;;6.18;5.57;;;;;;;13.25;70.71;97680.28;5055283;28;20090;-75
2023/05/15 02:47:20;;;;;;;6.53;5.25;;;;;;;13.28;70.38;97675.25;5054259;28;20035;-75
2023/05/15 02:49:46;;;;;;;6.70;5.80;;;;;;;13.28;70.67;97678.81;5055392;28;20040;-75
2023/05/15 02:52:12;;;;;;;6.95;5.65;;;;;;;13.31;70.64;97674.59;5055326;28;20075;-75
2023/05/15 02:54:37;;;;;;;6.07;5.47;;;;;;;13.32;70.54;97663.22;5055539;28;20021;-75
2023/05/15 02:57:02;;;;;;;6.80;5.30;;;;;;;13.33;70.58;97670.34;5055157;28;20362;-75
2023/05/15 02:59:28;;;;;;;7.18;5.65;;;;;;;13.33;70.52;97664.06;5055359;28;20115;-75
2023/05/15 03:01:53;;;;;;;6.40;4.88;;;;;;;13.34;70.48;97662.91;5055085;28;20025;-75
2023/05/15 03:04:19;;;;;;;7.22;5.65;;;;;;;13.34;70.66;97668.44;5055405;28;20045;-76
2023/05/15 03:06:45;;;;;;;7.38;5.88;;;;;;;13.36;70.67;97668.91;5055000;28;20421;-75
2023/05/15 03:09:10;;;;;;;6.05;5.15;;;;;;;13.37;70.70;97662.25;5055127;28;20021;-75
2023/05/15 03:11:35;;;;;;;8.30;5.13;;;;;;;13.38;70.64;97658.34;5053705;28;20362;-75
2023/05/15 03:14:01;;;;;;;8.77;5.82;;;;;;;13.39;70.85;97657.22;5054713;28;20021;-75
2023/05/15 03:16:27;;;;;;;8.35;6.63;;;;;;;13.39;70.75;97654.47;5052226;28;20057;-75
2023/05/15 03:18:52;;;;;;;6.55;5.80;;;;;;;13.43;70.73;97660.13;5054232;28;20100;-75
2023/05/15 03:21:18;;;;;;;6.68;5.93;;;;;;;13.43;70.58;97658.19;5054698;28;20067;-75
2023/05/15 03:23:43;;;;;;;7.57;5.38;;;;;;;13.44;70.72;97654.31;5054683;28;20100;-75
2023/05/15 03:26:08;;;;;;;6.78;5.70;;;;;;;13.44;70.52;97645.22;5054851;28;20407;-74
2023/05/15 03:28:34;;;;;;;7.57;5.57;;;;;;;13.42;70.62;97644.75;5054625;28;20035;-75
2023/05/15 03:30:59;;;;;;;6.60;5.43;;;;;;;13.40;70.60;97640.34;5054399;28;20032;-75
2023/05/15 03:33:25;;;;;;;6.20;5.55;;;;;;;13.40;70.70;97645.06;5054515;28;20128;-75
2023/05/15 03:35:51;;;;;;;7.18;5.53;;;;;;;13.40;70.69;97637.59;5054389;28;20049;-75
2023/05/15 03:38:16;;;;;;;5.72;4.85;;;;;;;13.39;70.86;97630.47;5054432;28;20406;-75
2023/05/15 03:40:42;;;;;;;6.80;5.30;;;;;;;13.40;70.59;97623.03;5054326;28;20040;-75
2023/05/15 03:43:07;;;;;;;6.13;5.40;;;;;;;13.39;70.76;97624.97;5054473;28;20024;-74
2023/05/15 03:45:34;;;;;;;5.53;5.03;;;;;;;13.38;70.72;97617.03;5054268;28;20054;-75
2023/05/15 03:47:59;;;;;;;6.28;4.97;;;;;;;13.37;70.83;97621.72;5054141;28;20473;-75
2023/05/15 03:50:25;;;;;;;6.43;5.63;;;;;;;13.34;70.85;97616.09;5053594;28;20151;-75
2023/05/15 03:52:50;;;;;;;6.13;5.47;;;;;;;13.33;70.93;97618.03;5052812;28;20451;-75
2023/05/15 03:55:16;;;;;;;6.38;5.40;;;;;;;13.33;70.87;97620.00;5054014;28;20029;-74
2023/05/15 03:57:41;;;;;;;8.15;5.80;;;;;;;13.31;70.96;97617.56;5054100;28;20029;-75
2023/05/15 04:00:10;;;;;;;6.50;5.80;;;;;;;13.30;70.90;97617.91;5054018;28;20037;-75
2023/05/15 04:02:36;;;;;;;7.35;6.45;;;;;;;13.27;70.72;97622.13;5053967;28;20025;-74
2023/05/15 04:05:04;;;;;;;6.53;5.82;;;;;;;13.25;70.93;97625.22;5053859;28;20538;-75
2023/05/15 04:07:30;;;;;;;6.63;5.55;;;;;;;13.28;71.28;97623.72;5053748;28;20029;-75
2023/05/15 04:09:55;;;;;;;6.32;5.32;;;;;;;13.25;70.95;97627.97;5053693;28;20040;-75
2023/05/15 04:12:21;;;;;;;6.80;5.13;;;;;;;13.23;70.96;97627.50;5053797;28;20021;-75
2023/05/15 04:14:47;;;;;;;6.32;4.85;;;;;;;13.23;71.27;97630.25;5053507;28;20082;-74
2023/05/15 04:17:12;;;;;;;6.47;5.75;;;;;;;13.23;71.33;97624.75;5053617;28;20100;-74
2023/05/15 04:19:39;;;;;;;6.40;5.72;;;;;;;13.23;71.15;97630.25;5053495;28;20382;-74
2023/05/15 04:22:05;;;;;;;6.00;5.32;;;;;;;13.23;71.32;97624.75;5053483;28;20473;-74
2023/05/15 04:24:30;;;;;;;7.18;6.03;;;;;;;13.21;71.30;97624.28;5053567;28;20115;-74
2023/05/15 04:26:56;;;;;;;7.53;6.22;;;;;;;13.21;71.32;97621.53;5053324;28;20029;-74
2023/05/15 04:29:21;;;;;;;7.00;5.22;;;;;;;13.20;71.42;97621.88;5053568;28;20048;-74
2023/05/15 04:31:46;;;;;;;5.75;5.15;;;;;;;13.19;71.34;97607.28;5053314;28;20032;-75
2023/05/15 04:34:12;;;;;;;7.25;5.20;;;;;;;13.21;71.68;97612.47;5053419;28;20017;-75
2023/05/15 04:36:37;;;;;;;7.20;5.32;;;;;;;13.20;71.54;97603.38;5053229;28;20048;-74
2023/05/15 04:39:03;;;;;;;7.60;5.28;;;;;;;13.19;71.42;97603.75;5053060;28;20067;-74
2023/05/15 04:41:29;;;;;;;7.63;5.10;;;;;;;13.21;71.55;97601.47;5053036;28;20056;-74
2023/05/15 04:43:54;;;;;;;8.88;5.47;;;;;;;13.22;71.67;97603.88;5053058;28;20029;-75
2023/05/15 04:46:20;;;;;;;7.00;5.30;;;;;;;13.23;71.57;97594.47;5051731;28;20017;-74
2023/05/15 04:48:45;;;;;;;6.18;4.72;;;;;;;13.24;71.77;97595.28;5053316;28;20063;-74
2023/05/15 04:51:11;;;;;;;5.30;4.80;;;;;;;13.24;71.82;97600.78;5052909;28;20040;-74
2023/05/15 04:53:36;;;;;;;5.72;4.93;;;;;;;13.24;72.10;97592.53;5051658;28;20059;-74
2023/05/15 04:56:02;;;;;;;6.00;4.63;;;;;;;13.25;71.97;97599.63;5052885;28;20029;-74
2023/05/15 04:58:27;;;;;;;5.97;4.80;;;;;;;13.24;72.02;97593.31;5052885;28;20051;-75
2023/05/15 05:00:52;;;;;;;4.47;4.03;;;;;;;13.25;71.96;97594.94;5051957;28;20045;-75
2023/05/15 05:03:18;;;;;;;5.40;4.40;;;;;;;13.28;72.33;97593.44;5052751;28;20132;-74
2023/05/15 05:05:43;;;;;;;5.25;4.20;;;;;;;13.31;72.18;97587.28;5052588;28;20037;-74
2023/05/15 05:08:08;;;;;;;4.35;3.90;;;;;;;13.35;72.27;97590.97;5052728;28;20032;-74
2023/05/15 05:10:34;;;;;;;4.03;3.60;;;;;;;13.39;72.18;97580.09;5052541;28;20041;-75
2023/05/15 05:12:59;;;;;;;5.30;3.95;;;;;;;13.40;72.20;97581.72;5051723;28;20037;-75
2023/05/15 05:15:25;;;;;;;4.80;4.03;;;;;;;13.43;72.25;97575.56;5052519;28;20113;-74
2023/05/15 05:17:51;;;;;;;3.95;3.55;;;;;;;13.45;72.36;97572.47;5052448;28;20033;-74
2023/05/15 05:20:17;;;;;;;4.97;3.25;;;;;;;13.46;72.31;97579.59;5052520;28;20362;-74
2023/05/15 05:22:42;;;;;;;3.78;3.45;;;;;;;13.49;72.51;97573.41;5052571;28;20044;-74
2023/05/15 05:25:08;;;;;;;4.95;3.40;;;;;;;13.50;72.49;97569.50;5052509;28;20032;-74
2023/05/15 05:27:33;;;;;;;5.05;3.40;;;;;;;13.54;72.52;97573.19;5052666;28;20033;-74
2023/05/15 05:29:59;;;;;;;3.70;3.40;;;;;;;13.56;72.80;97579.19;5052616;28;20032;-74
2023/05/15 05:32:25;;;;;;;4.00;3.60;;;;;;;13.57;72.74;97574.47;5052583;28;20446;-74
2023/05/15 05:34:50;;;;;;;4.03;3.50;;;;;;;13.55;72.56;97575.59;5052376;28;20064;-74
2023/05/15 05:37:15;;;;;;;3.42;3.13;;;;;;;13.55;72.71;97575.59;5052211;28;20067;-74
2023/05/15 05:39:41;;;;;;;4.57;3.42;;;;;;;13.57;72.77;97578.03;5052239;28;20047;-74
2023/05/15 05:42:06;;;;;;;4.78;3.47;;;;;;;13.58;72.73;97570.56;5052283;28;20029;-74
2023/05/15 05:44:33;;;;;;;4.78;3.50;;;;;;;13.61;72.74;97573.47;5052242;28;20040;-74
2023/05/15 05:46:58;;;;;;;4.28;3.65;;;;;;;13.63;72.59;97573.94;5052073;28;20460;-74
2023/05/15 05:49:24;;;;;;;4.65;4.13;;;;;;;13.65;72.47;97568.84;5052115;28;20036;-74
2023/05/15 05:51:49;;;;;;;4.38;3.50;;;;;;;13.66;72.74;97566.94;5050676;28;20025;-74
2023/05/15 05:54:16;;;;;;;5.45;3.60;;;;;;;13.65;72.64;97563.34;5052207;28;20028;-74
2023/05/15 05:56:42;;;;;;;3.63;3.30;;;;;;;13.65;72.78;97566.09;5051976;28;20029;-75
2023/05/15 05:59:08;;;;;;;3.15;2.85;;;;;;;13.67;72.74;97563.81;5051953;28;20385;-74
2023/05/15 06:01:34;;;;;;;3.58;3.00;;;;;;;13.69;72.77;97567.03;5052025;28;20021;-75
2023/05/15 06:04:00;;;;;;;3.50;3.20;;;;;;;13.70;72.78;97560.38;5054879;28;20052;-74
2023/05/15 06:06:25;;;;;;;4.75;3.38;;;;;;;13.73;72.77;97558.09;5049515;28;20029;-74
2023/05/15 06:08:50;;;;;;;3.63;3.28;;;;;;;13.75;72.85;97558.56;5038723;28;20029;-72
2023/05/15 06:11:17;;;;;;;3.60;3.15;;;;;;;13.74;72.89;97549.50;5050023;28;20017;-72
2023/05/15 06:13:43;;;;;;;3.42;3.13;;;;;;;13.78;72.72;97552.38;5055631;28;20032;-73
2023/05/15 06:16:08;;;;;;;3.85;3.35;;;;;;;13.81;73.06;97551.69;5050690;28;20110;-73
2023/05/15 06:18:33;;;;;;;4.65;3.47;;;;;;;13.85;73.09;97563.66;5052260;28;20020;-73
2023/05/15 06:20:59;;;;;;;4.38;3.78;;;;;;;13.86;73.04;97559.75;5053483;28;20040;-73
2023/05/15 06:23:25;;;;;;;3.65;3.35;;;;;;;13.85;72.81;97558.16;5065460;28;20388;-73
2023/05/15 06:25:51;;;;;;;3.75;3.42;;;;;;;13.85;72.65;97549.88;5075485;28;20046;-73
2023/05/15 06:28:16;;;;;;;4.15;3.70;;;;;;;13.87;72.97;97558.63;5055059;28;20025;-73
2023/05/15 06:30:42;;;;;;;3.97;3.40;;;;;;;13.91;72.95;97562.31;5047467;28;20037;-72
2023/05/15 06:33:07;;;;;;;4.30;3.90;;;;;;;13.94;72.99;97550.59;5055142;28;20163;-73
2023/05/15 06:35:33;;;;;;;4.25;3.70;;;;;;;13.94;72.70;97550.59;5060755;28;20029;-71
2023/05/15 06:37:58;;;;;;;4.45;3.72;;;;;;;13.96;73.00;97559.34;5054822;28;20104;-74
2023/05/15 06:40:24;;;;;;;4.90;3.85;;;;;;;13.99;72.93;97557.84;5054589;28;20759;-73
2023/05/15 06:42:49;;;;;;;4.80;4.10;;;;;;;14.02;72.74;97556.38;5053675;28;20020;-72
2023/05/15 06:45:14;;;;;;;5.05;4.07;;;;;;;14.04;73.09;97546.59;5053312;28;20056;-73
2023/05/15 06:47:40;;;;;;;6.85;4.35;;;;;;;14.07;72.71;97550.59;5053775;28;20017;-73
2023/05/15 06:50:06;;;;;;;5.20;4.40;;;;;;;14.10;72.85;97549.91;5056167;28;20056;-72
2023/05/15 06:52:31;;;;;;;4.60;4.20;;;;;;;14.12;72.78;97547.63;5055337;28;20078;-72
2023/05/15 06:54:56;;;;;;;4.22;3.83;;;;;;;14.12;72.21;97547.63;5054071;28;20485;-73
2023/05/15 06:57:22;;;;;;;5.93;3.80;;;;;;;14.13;72.70;97552.00;5053503;28;20035;-72
2023/05/15 06:59:47;;;;;;;4.40;4.00;;;;;;;14.16;72.78;97559.59;5059160;28;20032;-73
2023/05/15 07:02:13;;;;;;;3.92;3.25;;;;;;;14.18;72.86;97556.50;5051789;28;20032;-73
2023/05/15 07:04:38;;;;;;;4.97;3.67;;;;;;;14.20;72.84;97557.75;5053405;28;20033;-73
2023/05/15 07:07:05;;;;;;;3.80;3.28;;;;;;;14.21;72.84;97559.38;5053093;28;20039;-74
2023/05/15 07:09:31;;;;;;;3.95;3.55;;;;;;;14.22;72.73;97555.47;5054759;28;20028;-74
2023/05/15 07:11:56;;;;;;;5.18;3.20;;;;;;;14.26;72.58;97555.59;5054905;28;20029;-74
2023/05/15 07:14:21;;;;;;;4.70;3.50;;;;;;;14.26;72.96;97559.16;5052411;28;20033;-74
2023/05/15 07:16:47;;;;;;;3.95;3.33;;;;;;;14.27;72.79;97546.16;5054434;28;20032;-75
2023/05/15 07:19:17;;;;;;;3.63;3.08;;;;;;;14.26;72.93;97550.88;5054620;28;20029;-74
2023/05/15 07:21:42;;;;;;;3.78;3.30;;;;;;;14.28;72.81;97548.59;5054454;28;20025;-74
2023/05/15 07:24:07;;;;;;;3.50;3.17;;;;;;;14.30;72.83;97539.94;5053903;28;20028;-73
2023/05/15 07:26:33;;;;;;;3.67;3.38;;;;;;;14.33;72.68;97544.00;5054392;28;20029;-75
2023/05/15 07:28:58;;;;;;;4.88;4.00;;;;;;;14.34;72.77;97546.41;5053429;28;20048;-73
2023/05/15 07:31:24;;;;;;;4.22;3.58;;;;;;;14.36;73.00;97549.63;5052508;28;20025;-73
2023/05/15 07:33:49;;;;;;;6.13;4.20;;;;;;;14.37;72.86;97542.16;5056050;28;20123;-74
2023/05/15 07:36:15;;;;;;;5.47;4.40;;;;;;;14.38;72.74;97546.53;5058141;28;20362;-73
2023/05/15 07:38:40;;;;;;;5.10;4.60;;;;;;;14.37;72.91;97537.44;5054054;28;20393;-73
2023/05/15 07:41:06;;;;;;;5.93;4.97;;;;;;;14.36;72.52;97548.81;5053859;28;20040;-75
2023/05/15 07:43:31;;;;;;;5.68;5.00;;;;;;;14.37;72.61;97542.16;5054397;28;20025;-75
2023/05/15 07:45:56;;;;;;;5.85;5.10;;;;;;;14.37;72.82;97534.66;5050886;28;20444;-73
2023/05/15 07:48:22;;;;;;;5.55;5.03;;;;;;;14.39;72.60;97542.63;5054411;28;20029;-73
2023/05/15 07:50:49;;;;;;;8.15;6.53;;;;;;;14.41;72.60;97556.88;5054760;28;20051;-74
2023/05/15 07:53:18;;;;;;;7.32;6.22;;;;;;;14.38;72.49;97544.56;5054901;28;20123;-74
2023/05/15 07:55:44;;;;;;;6.95;6.00;;;;;;;14.38;72.58;97539.03;5048889;28;20385;-73
2023/05/15 07:58:09;;;;;;;6.47;5.88;;;;;;;14.38;72.65;97549.28;5053506;28;20025;-73
2023/05/15 08:00:35;;;;;;;6.65;5.70;;;;;;;14.40;72.79;97544.22;5053650;28;20033;-74
2023/05/15 08:03:01;;;;;;;6.13;5.47;;;;;;;14.40;72.78;97555.25;5053408;28;20021;-74
2023/05/15 08:05:28;;;;;;;6.68;5.70;;;;;;;14.40;72.63;97550.53;5054601;28;20079;-73
2023/05/15 08:07:54;;;;;;;6.38;5.55;;;;;;;14.40;72.74;97563.53;5054143;28;20032;-73
2023/05/15 08:10:19;;;;;;;5.80;5.18;;;;;;;14.40;72.67;97561.56;5054347;28;20029;-73
2023/05/15 08:12:46;;;;;;;7.07;5.60;;;;;;;14.42;72.69;97558.50;5053189;28;20021;-76
2023/05/15 08:15:12;;;;;;;7.05;5.38;;;;;;;14.43;72.74;97558.13;5054196;28;20108;-77
2023/05/15 08:17:37;;;;;;;7.43;5.50;;;;;;;14.40;72.92;97561.56;5054073;28;20477;-78
2023/05/15 08:20:04;;;;;;;6.07;5.45;;;;;;;14.37;72.75;97562.25;5053784;28;20044;-76
2023/05/15 08:22:29;;;;;;;6.20;5.60;;;;;;;14.36;72.90;97565.38;5054422;28;20113;-77
2023/05/15 08:24:55;;;;;;;7.00;6.30;;;;;;;14.36;72.72;97559.84;5054171;28;20096;-73
2023/05/15 08:27:21;;;;;;;9.38;6.60;;;;;;;14.34;72.90;97554.66;5054005;28;20025;-76
2023/05/15 08:29:46;;;;;;;8.13;6.85;;;;;;;14.32;73.09;97565.25;5053409;28;20067;-75
2023/05/15 08:32:11;;;;;;;9.10;6.95;;;;;;;14.32;72.81;97558.94;5041654;28;20036;-76
2023/05/15 08:34:37;;;;;;;10.02;7.38;;;;;;;14.32;72.99;97558.94;5036070;28;20056;-78
2023/05/15 08:37:03;;;;;;;9.23;7.65;;;;;;;14.31;73.01;97560.88;5043482;28;20033;-74
2023/05/15 08:39:28;;;;;;;11.32;8.30;;;;;;;14.32;73.10;97558.94;5053483;28;20051;-75
2023/05/15 08:42:18;;;;;;;11.18;7.95;;;;;;;14.32;73.10;97556.16;5053835;28;20021;-75
2023/05/15 08:44:44;;;;;;;12.65;8.60;;;;;;;14.33;73.27;97566.06;5052481;28;20064;-76
2023/05/15 08:47:10;;;;;;;10.50;8.40;;;;;;;14.37;73.26;97564.22;5053311;28;20055;-76
2023/05/15 08:50:00;;;;;;;12.23;8.73;;;;;;;14.36;73.01;97565.38;5053275;28;20035;-76
2023/05/15 08:52:26;;;;;;;12.23;8.75;;;;;;;14.39;73.18;97561.94;5053843;28;20027;-75
2023/05/15 08:54:52;;;;;;;12.77;8.77;;;;;;;14.40;73.07;97558.81;5053610;28;20027;-75
2023/05/15 08:57:18;;;;;;;12.57;8.88;;;;;;;14.44;73.33;97551.47;5053209;28;20396;-76
2023/05/15 08:59:45;;;;;;;11.43;8.35;;;;;;;14.49;73.46;97555.94;5053418;28;20028;-75
2023/05/15 09:02:10;;;;;;;11.68;8.88;;;;;;;14.53;73.36;97556.06;5053739;28;20045;-72
2023/05/15 09:04:35;;;;;;;9.27;6.93;;;;;;;14.55;73.14;97557.31;5053512;28;20057;-76
2023/05/15 09:07:02;;;;;;;7.70;6.32;;;;;;;14.58;73.33;97561.38;5053557;28;20453;-74
2023/05/15 09:09:31;;;;;;;9.18;6.90;;;;;;;14.60;73.21;97559.06;5053016;28;20029;-74
2023/05/15 09:11:59;;;;;;;8.35;6.10;;;;;;;14.57;73.17;97563.31;5053236;28;20048;-75
2023/05/15 09:14:24;;;;;;;9.85;6.13;;;;;;;14.57;73.40;97571.56;5053700;28;20044;-75
2023/05/15 09:16:52;;;;;;;8.52;6.53;;;;;;;14.55;73.11;97568.34;5053557;28;20517;-74
2023/05/15 09:19:19;;;;;;;10.18;7.57;;;;;;;14.54;73.25;97560.44;5052904;28;20029;-73
2023/05/15 09:21:44;;;;;;;9.00;6.85;;;;;;;14.56;73.35;97563.66;5052892;28;20086;-73
2023/05/15 09:24:27;;;;;;;10.95;9.57;;;;;;;14.56;73.34;97561.69;5053052;28;20025;-71
2023/05/15 09:27:06;;;;;;;12.27;10.88;;;;;;;14.58;73.67;97569.63;5052987;28;20032;-74
2023/05/15 09:29:32;;;;;;;;;;;;;;;14.61;73.50;97560.69;5053162;28;20032;-74
2023/05/15 09:32:17;;;;;;;9.25;7.85;;;;;;;14.65;73.33;97564.34;5052927;28;19966;-73
2023/05/15 09:34:43;;;;;;;6.50;5.38;;;;;;;14.70;73.35;97568.84;5053029;28;20068;-74
2023/05/15 09:37:11;;;;;;;7.05;5.75;;;;;;;14.73;73.58;97568.16;5053203;28;20075;-73
2023/05/15 09:39:42;;;;;;;6.78;5.78;;;;;;;14.75;73.37;97565.88;5047933;28;20048;-74
2023/05/15 09:42:12;;;;;;;7.95;5.47;;;;;;;14.79;73.66;97571.50;5054192;28;20024;-73
2023/05/15 09:44:42;;;;;;;7.55;5.35;;;;;;;14.81;73.87;97564.50;5035929;28;20060;-74
2023/05/15 09:47:12;;;;;;;6.43;5.18;;;;;;;14.83;73.63;97573.22;5045291;28;20060;-73
2023/05/15 09:49:37;;;;;;;7.63;5.50;;;;;;;14.88;73.45;97563.91;5039318;28;20033;-74
2023/05/15 09:52:07;;;;;;;8.18;6.30;;;;;;;14.95;73.90;97568.81;5032498;28;20045;-73
2023/05/15 09:54:34;;;;;;;8.30;6.05;;;;;;;15.01;73.70;97572.97;5045841;28;20025;-75
2023/05/15 09:57:08;;;;;;;15.13;7.72;;;;;;;15.08;73.77;97572.41;5050869;28;20111;-74
2023/05/15 09:59:33;;;;;;;9.68;6.03;;;;;;;15.17;73.96;97573.03;5061043;28;20025;-75
2023/05/15 10:01:59;;;;;;;7.05;4.70;;;;;;;15.21;73.63;97573.16;5048128;28;20082;-78
2023/05/15 10:04:25;;;;;;;5.93;4.70;;;;;;;15.25;74.07;97568.56;5048429;28;20064;-75
2023/05/15 10:06:52;;;;;;;6.43;4.60;;;;;;;15.29;74.08;97573.03;5051721;28;20500;-75
2023/05/15 10:09:17;;;;;;;6.82;4.95;;;;;;;15.35;73.63;97576.34;5051505;28;20017;-75
2023/05/15 10:11:48;;;;;;;8.90;5.70;;;;;;;15.43;73.76;97575.41;5049644;28;20127;-77
2023/05/15 10:14:16;;;;;;;6.47;5.00;;;;;;;15.51;73.81;97573.63;5048849;28;20036;-72
2023/05/15 10:16:43;;;;;;;6.03;4.28;;;;;;;15.55;74.00;97576.53;5048272;28;20124;-75
2023/05/15 10:19:10;;;;;;;6.60;4.25;;;;;;;15.59;74.17;97577.44;5047336;28;20075;-76
2023/05/15 10:21:38;;;;;;;7.18;3.88;;;;;;;15.60;73.71;97574.31;5046951;28;20091;-75
2023/05/15 10:24:05;;;;;;;5.45;4.15;;;;;;;15.61;73.59;97575.91;5050904;28;20500;-76
2023/05/15 10:26:38;;;;;;;6.45;4.55;;;;;;;15.66;73.24;97582.34;5049822;28;20029;-74
2023/05/15 10:29:12;;;;;;;4.65;4.00;;;;;;;15.74;73.30;97584.94;5049512;28;20029;-74
2023/05/15 10:31:41;;;;;;;4.28;3.58;;;;;;;15.80;73.60;97581.94;5049807;28;20029;-73
2023/05/15 10:34:08;;;;;;;4.45;3.40;;;;;;;15.83;73.74;97582.06;5046390;28;20064;-74
2023/05/15 10:36:35;;;;;;;5.63;3.60;;;;;;;15.87;73.06;97580.22;5050350;28;20032;-74
2023/05/15 10:39:04;;;;;;;4.40;3.47;;;;;;;15.94;73.41;97571.31;5048299;28;20033;-75
2023/05/15 10:41:32;;;;;;;3.33;3.03;;;;;;;15.98;73.23;97571.41;5050510;28;20032;-75
2023/05/15 10:43:59;;;;;;;4.25;3.00;;;;;;;16.03;73.30;97580.25;5051192;28;20075;-76
2023/05/15 10:46:26;;;;;;;3.85;3.05;;;;;;;16.07;73.38;97569.28;5049900;28;20117;-74
2023/05/15 10:48:52;;;;;;;5.43;3.35;;;;;;;16.09;72.76;97568.94;5049602;28;20485;-73
2023/05/15 10:51:24;;;;;;;4.05;3.20;;;;;;;16.09;72.41;97571.69;5050959;28;20394;-73
2023/05/15 10:53:50;;;;;;;6.68;3.72;;;;;;;16.12;72.54;97579.25;5050561;28;20064;-73
2023/05/15 10:56:16;;;;;;;5.30;3.25;;;;;;;16.14;72.53;97566.69;5050272;28;20068;-74
2023/05/15 10:58:46;;;;;;;6.30;3.80;;;;;;;16.17;72.51;97567.94;5048252;28;20052;-73
2023/05/15 11:01:33;;;;;;;2.97;2.38;;;;;;;16.23;72.23;97569.28;5053759;28;20029;-73
2023/05/15 11:04:16;;;;;;;4.78;2.95;;;;;;;16.30;72.53;97555.66;5054272;28;20043;-74
2023/05/15 11:06:42;;;;;;;3.55;2.00;;;;;;;16.37;72.06;97557.78;5045765;28;20045;-74
2023/05/15 11:09:20;;;;;;;3.55;2.17;;;;;;;16.44;72.51;97569.03;5049535;28;20518;-73
2023/05/15 11:11:51;;;;;;;3.78;1.90;;;;;;;16.49;72.33;97560.47;5041995;28;20696;-72
2023/05/15 11:14:19;;;;;;;2.38;2.17;;;;;;;16.55;71.70;97560.19;5061872;28;20047;-71
2023/05/15 11:16:54;;;;;;;3.88;2.67;;;;;;;16.58;71.88;97551.19;5036954;28;20017;-74
2023/05/15 11:19:30;;;;;;;5.95;2.60;;;;;;;16.54;71.51;97540.00;5037346;28;20057;-73
2023/05/15 11:22:14;;;;;;;4.18;2.38;;;;;;;16.56;71.51;97543.22;5034883;28;20026;-75
2023/05/15 11:24:46;;;;;;;3.20;2.30;;;;;;;16.64;71.41;97527.59;5040923;28;20028;-73
2023/05/15 11:27:15;;;;;;;4.07;2.78;;;;;;;16.75;71.81;97530.63;5054255;28;20120;-72
2023/05/15 11:30:03;;;;;;;6.00;2.92;;;;;;;16.89;71.61;97527.38;5059491;28;20033;-74
2023/05/15 11:32:57;;;;;;;5.75;3.13;;;;;;;16.95;71.21;97523.16;5063885;28;20029;-73